Time;durP1;ratioP1;P1;durP2;ratioP2;P2;SDS_P1;SDS_P2;PMS_P1;PMS_P2;Temp;Humidity;BMP_temperature;BMP_pressure;BME280_temperature;BME280_humidity;BME280_pressure;Samples;Min_cycle;Max_cycle;Signal;HPM_P1;HPM_P2
2022/10/15 00:00:17;;;;;;;;;;;;;;;;;;1053298;28;2666;-55
2022/10/15 00:01:12;;;;;;;;;;;;;;;;;;1047848;28;2589;-54
2022/10/15 00:01:43;;;;;;;;;;;;;;;;;;1048094;28;3031;-53
2022/10/15 00:02:14;;;;;;;;;;;;;;;;;;1045563;28;2649;-55
2022/10/15 00:02:44;;;;;;;;;;;;;;;;;;1046482;28;2398;-56
2022/10/15 00:03:14;;;;;;;;;;;;;;;;;;1048706;28;2547;-54
2022/10/15 00:03:45;;;;;;;;;;;;;;;;;;1048848;28;2498;-58
2022/10/15 00:04:15;;;;;;;;;;;;;;;;;;1053970;28;2485;-52
2022/10/15 00:04:52;;;;;;;;;;;;;;;;;;1051846;28;2611;-57
2022/10/15 00:05:22;;;;;;;;;;;;;;;;;;1052547;28;3134;-56
2022/10/15 00:05:52;;;;;;;;;;;;;;;;;;1052029;28;3018;-54
2022/10/15 00:06:23;;;;;;;;;;;;;;;;;;1051789;28;2940;-56
2022/10/15 00:06:53;;;;;;;;;;;;;;;;;;1053672;28;2524;-57
2022/10/15 00:07:23;;;;;;;;;;;;;;;;;;1052624;28;2639;-56
2022/10/15 00:07:54;;;;;;;;;;;;;;;;;;1052959;28;2522;-55
2022/10/15 00:08:24;;;;;;;;;;;;;;;;;;1052795;28;2676;-55
2022/10/15 00:08:55;;;;;;;;;;;;;;;;;;1054031;28;2558;-51
2022/10/15 00:09:26;;;;;;;;;;;;;;;;;;1049170;28;2988;-55
2022/10/15 00:09:56;;;;;;;;;;;;;;;;;;1044031;28;2956;-56
2022/10/15 00:10:26;;;;;;;;;;;;;;;;;;1044696;28;2483;-55
2022/10/15 00:11:14;;;;;;;;;;;;;;;;;;1044822;28;2560;-57
2022/10/15 00:11:44;;;;;;;;;;;;;;;;;;1050819;28;3139;-56
2022/10/15 00:12:14;;;;;;;;;;;;;;;;;;1052147;28;2564;-54
2022/10/15 00:12:44;;;;;;;;;;;;;;;;;;1051859;28;2199;-55
2022/10/15 00:13:15;;;;;;;;;;;;;;;;;;1052747;28;2444;-57
2022/10/15 00:13:45;;;;;;;;;;;;;;;;;;1052342;28;3006;-55
2022/10/15 00:14:16;;;;;;;;;;;;;;;;;;1052483;28;2615;-54
2022/10/15 00:14:46;;;;;;;;;;;;;;;;;;1052350;28;2474;-57
2022/10/15 00:15:17;;;;;;;;;;;;;;;;;;1051570;28;2543;-57
2022/10/15 00:15:47;;;;;;;;;;;;;;;;;;1052967;28;2601;-57
2022/10/15 00:16:18;;;;;;;;;;;;;;;;;;1053207;28;2538;-56
2022/10/15 00:16:49;;;;;;;;;;;;;;;;;;1054131;28;2471;-57
2022/10/15 00:17:20;;;;;;;;;;;;;;;;;;1046749;28;3121;-56
2022/10/15 00:17:51;;;;;;;;;;;;;;;;;;1042982;28;2883;-53
2022/10/15 00:18:21;;;;;;;;;;;;;;;;;;1045203;28;2520;-56
2022/10/15 00:18:53;;;;;;;;;;;;;;;;;;1045768;28;3166;-54
2022/10/15 00:19:24;;;;;;;;;;;;;;;;;;1048383;28;3046;-56
2022/10/15 00:19:54;;;;;;;;;;;;;;;;;;1052590;28;2526;-55
2022/10/15 00:20:25;;;;;;;;;;;;;;;;;;1053268;28;2398;-55
2022/10/15 00:20:55;;;;;;;;;;;;;;;;;;1053078;28;2465;-56
2022/10/15 00:21:26;;;;;;;;;;;;;;;;;;1052196;28;2509;-53
2022/10/15 00:21:56;;;;;;;;;;;;;;;;;;1051052;28;2500;-53
2022/10/15 00:22:27;;;;;;;;;;;;;;;;;;1052882;28;2589;-56
2022/10/15 00:22:57;;;;;;;;;;;;;;;;;;1046990;28;2499;-53
2022/10/15 00:23:29;;;;;;;;;;;;;;;;;;1047001;28;3069;-54
2022/10/15 00:23:59;;;;;;;;;;;;;;;;;;1047589;28;2913;-55
2022/10/15 00:24:30;;;;;;;;;;;;;;;;;;1047437;28;2657;-56
2022/10/15 00:25:01;;;;;;;;;;;;;;;;;;1052587;28;2428;-52
2022/10/15 00:25:31;;;;;;;;;;;;;;;;;;1048429;28;3043;-56
2022/10/15 00:26:03;;;;;;;;;;;;;;;;;;1048714;28;2800;-56
2022/10/15 00:26:34;;;;;;;;;;;;;;;;;;1046983;28;3296;-53
2022/10/15 00:27:04;;;;;;;;;;;;;;;;;;1051392;28;2685;-51
2022/10/15 00:27:35;;;;;;;;;;;;;;;;;;1048749;28;2589;-55
2022/10/15 00:28:06;;;;;;;;;;;;;;;;;;1043775;28;2050;-54
2022/10/15 00:28:36;;;;;;;;;;;;;;;;;;1043192;28;2526;-55
2022/10/15 00:29:06;;;;;;;;;;;;;;;;;;1043485;28;2499;-54
2022/10/15 00:29:37;;;;;;;;;;;;;;;;;;1049647;28;2779;-58
2022/10/15 00:30:07;;;;;;;;;;;;;;;;;;1052361;28;2482;-53
2022/10/15 00:30:37;;;;;;;;;;;;;;;;;;1053605;28;1582;-54
2022/10/15 00:31:10;;;;;;;;;;;;;;;;;;1052154;28;3062;-54
2022/10/15 00:31:40;;;;;;;;;;;;;;;;;;1054092;28;2718;-54
2022/10/15 00:32:11;;;;;;;;;;;;;;;;;;1053928;28;2467;-53
2022/10/15 00:32:42;;;;;;;;;;;;;;;;;;1047733;28;2514;-51
2022/10/15 00:33:12;;;;;;;;;;;;;;;;;;1044297;28;2324;-52
2022/10/15 00:33:44;;;;;;;;;;;;;;;;;;1043789;28;2775;-56
2022/10/15 00:34:14;;;;;;;;;;;;;;;;;;1046199;28;2595;-51
2022/10/15 00:34:45;;;;;;;;;;;;;;;;;;1048644;28;3025;-54
2022/10/15 00:35:15;;;;;;;;;;;;;;;;;;1055035;28;2202;-52
2022/10/15 00:35:45;;;;;;;;;;;;;;;;;;1054137;28;2541;-55
2022/10/15 00:36:17;;;;;;;;;;;;;;;;;;1050655;28;2838;-55
2022/10/15 00:36:48;;;;;;;;;;;;;;;;;;1051381;28;2855;-55
2022/10/15 00:37:20;;;;;;;;;;;;;;;;;;1052387;28;2538;-55
2022/10/15 00:37:50;;;;;;;;;;;;;;;;;;1049343;28;2955;-56
2022/10/15 00:38:21;;;;;;;;;;;;;;;;;;1049006;28;2539;-54
2022/10/15 00:38:51;;;;;;;;;;;;;;;;;;1048895;28;2499;-53
2022/10/15 00:39:21;;;;;;;;;;;;;;;;;;1048185;28;2546;-53
2022/10/15 00:39:52;;;;;;;;;;;;;;;;;;1052442;28;2441;-54
2022/10/15 00:40:22;;;;;;;;;;;;;;;;;;1053270;28;2516;-54
2022/10/15 00:40:53;;;;;;;;;;;;;;;;;;1049962;28;2463;-55
2022/10/15 00:41:25;;;;;;;;;;;;;;;;;;1049476;28;2099;-55
2022/10/15 00:41:55;;;;;;;;;;;;;;;;;;1048908;28;2529;-56
2022/10/15 00:42:25;;;;;;;;;;;;;;;;;;1048675;28;2735;-53
2022/10/15 00:42:55;;;;;;;;;;;;;;;;;;1052516;28;3026;-54
2022/10/15 00:43:36;;;;;;;;;;;;;;;;;;1051158;28;2536;-54
2022/10/15 00:44:28;;;;;;;;;;;;;;;;;;1053446;28;2583;-53
2022/10/15 00:44:58;;;;;;;;;;;;;;;;;;1051094;28;1993;-53
2022/10/15 00:45:29;;;;;;;;;;;;;;;;;;1052423;28;2542;-53
2022/10/15 00:45:59;;;;;;;;;;;;;;;;;;1051882;28;2675;-55
2022/10/15 00:46:30;;;;;;;;;;;;;;;;;;1052384;28;2430;-54
2022/10/15 00:47:04;;;;;;;;;;;;;;;;;;1054571;27;2608;-54
2022/10/15 00:47:37;;;;;;;;;;;;;;;;;;1052962;28;2561;-54
2022/10/15 00:48:21;;;;;;;;;;;;;;;;;;1052789;27;3068;-54
2022/10/15 00:49:18;;;;;;;;;;;;;;;;;;1050287;28;2374;-56
2022/10/15 00:49:55;;;;;;;;;;;;;;;;;;1049791;28;2483;-53
2022/10/15 00:50:26;;;;;;;;;;;;;;;;;;1043641;28;2381;-57
2022/10/15 00:50:59;;;;;;;;;;;;;;;;;;1045059;28;3272;-54
2022/10/15 00:51:35;;;;;;;;;;;;;;;;;;1040814;28;2481;-56
2022/10/15 00:52:08;;;;;;;;;;;;;;;;;;1042884;28;2581;-58
2022/10/15 00:52:41;;;;;;;;;;;;;;;;;;1047025;28;3966;-51
2022/10/15 00:53:12;;;;;;;;;;;;;;;;;;1047388;28;3068;-52
2022/10/15 00:53:43;;;;;;;;;;;;;;;;;;1048382;28;3063;-57
2022/10/15 00:54:13;;;;;;;;;;;;;;;;;;1048596;28;2742;-55
2022/10/15 00:54:47;;;;;;;;;;;;;;;;;;1046372;28;2818;-57
2022/10/15 00:55:32;;;;;;;;;;;;;;;;;;1045619;28;2431;-59
2022/10/15 00:56:03;;;;;;;;;;;;;;;;;;1045743;28;2265;-58
2022/10/15 00:56:34;;;;;;;;;;;;;;;;;;1047500;28;2695;-54
2022/10/15 00:57:05;;;;;;;;;;;;;;;;;;1049829;28;1949;-55
2022/10/15 00:57:36;;;;;;;;;;;;;;;;;;1047061;28;2278;-56
2022/10/15 00:58:08;;;;;;;;;;;;;;;;;;1049771;28;2564;-56
2022/10/15 00:58:39;;;;;;;;;;;;;;;;;;1048899;28;2338;-55
2022/10/15 00:59:10;;;;;;;;;;;;;;;;;;1050028;28;2603;-54
2022/10/15 00:59:43;;;;;;;;;;;;;;;;;;1051251;28;3127;-57
2022/10/15 01:00:16;;;;;;;;;;;;;;;;;;1053330;28;2492;-55
2022/10/15 01:00:47;;;;;;;;;;;;;;;;;;1044786;28;2569;-56
2022/10/15 01:01:17;;;;;;;;;;;;;;;;;;1044198;28;2710;-54
2022/10/15 01:01:47;;;;;;;;;;;;;;;;;;1043623;28;2572;-56
2022/10/15 01:02:19;;;;;;;;;;;;;;;;;;1044595;28;2781;-52
2022/10/15 01:02:49;;;;;;;;;;;;;;;;;;1047971;28;2132;-56
2022/10/15 01:03:20;;;;;;;;;;;;;;;;;;1047014;28;2707;-54
2022/10/15 01:03:53;;;;;;;;;;;;;;;;;;1042582;28;2701;-55
2022/10/15 01:04:24;;;;;;;;;;;;;;;;;;1045630;28;1458;-55
2022/10/15 01:04:54;;;;;;;;;;;;;;;;;;1048183;28;2523;-58
2022/10/15 01:05:25;;;;;;;;;;;;;;;;;;1048662;28;2446;-57
2022/10/15 01:05:55;;;;;;;;;;;;;;;;;;1049175;28;2740;-58
2022/10/15 01:06:26;;;;;;;;;;;;;;;;;;1047893;28;2261;-53
2022/10/15 01:06:57;;;;;;;;;;;;;;;;;;1048422;28;2072;-57
2022/10/15 01:07:28;;;;;;;;;;;;;;;;;;1045257;28;2615;-56
2022/10/15 01:07:58;;;;;;;;;;;;;;;;;;1043874;28;2542;-55
2022/10/15 01:08:28;;;;;;;;;;;;;;;;;;1041875;28;2506;-53
2022/10/15 01:08:59;;;;;;;;;;;;;;;;;;1040078;28;2552;-53
2022/10/15 01:09:30;;;;;;;;;;;;;;;;;;1043633;28;2536;-56
2022/10/15 01:10:02;;;;;;;;;;;;;;;;;;1044271;28;3042;-55
2022/10/15 01:10:40;;;;;;;;;;;;;;;;;;1041545;28;3052;-54
2022/10/15 01:11:17;;;;;;;;;;;;;;;;;;1039708;28;2746;-51
2022/10/15 01:11:49;;;;;;;;;;;;;;;;;;1039855;28;2688;-55
2022/10/15 01:12:38;;;;;;;;;;;;;;;;;;1042618;28;2593;-55
2022/10/15 01:13:11;;;;;;;;;;;;;;;;;;1050018;28;2720;-52
2022/10/15 01:14:00;;;;;;;;;;;;;;;;;;1049681;28;2475;-56
2022/10/15 01:14:49;;;;;;;;;;;;;;;;;;1047697;28;2849;-53
2022/10/15 01:15:32;;;;;;;;;;;;;;;;;;1048904;28;2575;-52
2022/10/15 01:16:31;;;;;;;;;;;;;;;;;;1047783;28;3022;-52
2022/10/15 01:17:01;;;;;;;;;;;;;;;;;;1047031;28;2565;-55
2022/10/15 01:17:37;;;;;;;;;;;;;;;;;;1049529;28;2506;-53
2022/10/15 01:18:11;;;;;;;;;;;;;;;;;;1048169;28;2574;-55
2022/10/15 01:18:52;;;;;;;;;;;;;;;;;;1047608;28;2582;-53
2022/10/15 01:19:36;;;;;;;;;;;;;;;;;;1043018;28;2559;-57
2022/10/15 01:20:19;;;;;;;;;;;;;;;;;;1043091;28;2206;-55
2022/10/15 01:20:49;;;;;;;;;;;;;;;;;;1048913;28;2463;-54
2022/10/15 01:21:24;;;;;;;;;;;;;;;;;;1046859;28;2842;-56
2022/10/15 01:22:01;;;;;;;;;;;;;;;;;;1049798;28;2555;-55
2022/10/15 01:22:50;;;;;;;;;;;;;;;;;;1047960;28;3622;-53
2022/10/15 01:23:40;;;;;;;;;;;;;;;;;;1045301;28;2457;-52
2022/10/15 01:24:29;;;;;;;;;;;;;;;;;;1043045;28;2662;-52
2022/10/15 01:25:02;;;;;;;;;;;;;;;;;;1043858;28;2658;-55
2022/10/15 01:25:42;;;;;;;;;;;;;;;;;;1048853;28;2440;-56
2022/10/15 01:26:34;;;;;;;;;;;;;;;;;;1050887;28;1993;-54
2022/10/15 01:27:16;;;;;;;;;;;;;;;;;;1049972;28;2657;-57
2022/10/15 01:28:15;;;;;;;;;;;;;;;;;;1047820;28;2131;-53
2022/10/15 01:28:59;;;;;;;;;;;;;;;;;;1048715;28;2583;-54
2022/10/15 01:29:35;;;;;;;;;;;;;;;;;;1051863;28;2043;-55
2022/10/15 01:30:44;;;;;;;;;;;;;;;;;;1047451;28;2683;-53
2022/10/15 01:31:22;;;;;;;;;;;;;;;;;;1034181;28;2802;-55
2022/10/15 01:32:01;;;;;;;;;;;;;;;;;;1034819;28;1836;-54
2022/10/15 01:32:51;;;;;;;;;;;;;;;;;;1035396;28;2483;-56
2022/10/15 01:33:28;;;;;;;;;;;;;;;;;;1032512;28;2618;-53
2022/10/15 01:34:09;;;;;;;;;;;;;;;;;;1030042;28;2521;-56
2022/10/15 01:34:41;;;;;;;;;;;;;;;;;;1030941;28;2012;-52
2022/10/15 01:35:21;;;;;;;;;;;;;;;;;;1028752;28;3223;-54
2022/10/15 01:35:56;;;;;;;;;;;;;;;;;;1032483;28;2633;-53
2022/10/15 01:36:26;;;;;;;;;;;;;;;;;;1032562;28;2548;-56
2022/10/15 01:37:02;;;;;;;;;;;;;;;;;;1033849;28;3118;-54
2022/10/15 01:37:37;;;;;;;;;;;;;;;;;;1047429;28;2367;-59
2022/10/15 01:38:11;;;;;;;;;;;;;;;;;;1048485;28;2468;-56
2022/10/15 01:38:42;;;;;;;;;;;;;;;;;;1050844;28;2661;-55
2022/10/15 01:39:20;;;;;;;;;;;;;;;;;;1049332;28;2681;-55
2022/10/15 01:39:53;;;;;;;;;;;;;;;;;;1050287;28;2533;-55
2022/10/15 01:40:30;;;;;;;;;;;;;;;;;;1049484;28;1829;-57
2022/10/15 01:41:14;;;;;;;;;;;;;;;;;;1047344;28;2520;-51
2022/10/15 01:42:05;;;;;;;;;;;;;;;;;;1047375;28;2621;-57
2022/10/15 01:42:39;;;;;;;;;;;;;;;;;;1051874;28;2953;-56
2022/10/15 01:43:16;;;;;;;;;;;;;;;;;;1054247;28;2478;-56
2022/10/15 01:43:54;;;;;;;;;;;;;;;;;;1044463;28;2102;-58
2022/10/15 01:44:30;;;;;;;;;;;;;;;;;;1045441;28;2544;-51
2022/10/15 01:45:08;;;;;;;;;;;;;;;;;;1043994;28;2510;-56
2022/10/15 01:45:38;;;;;;;;;;;;;;;;;;1046218;28;2445;-57
2022/10/15 01:46:15;;;;;;;;;;;;;;;;;;1049005;28;2178;-54
2022/10/15 01:46:47;;;;;;;;;;;;;;;;;;1047636;28;2702;-52
2022/10/15 01:47:28;;;;;;;;;;;;;;;;;;1049135;28;2019;-53
2022/10/15 01:48:16;;;;;;;;;;;;;;;;;;1048297;28;3303;-56
2022/10/15 01:48:54;;;;;;;;;;;;;;;;;;1051465;28;3116;-57
2022/10/15 01:49:28;;;;;;;;;;;;;;;;;;1050084;28;2026;-55
2022/10/15 01:50:00;;;;;;;;;;;;;;;;;;1042180;28;2236;-56
2022/10/15 01:50:32;;;;;;;;;;;;;;;;;;1042006;28;2118;-57
2022/10/15 01:51:03;;;;;;;;;;;;;;;;;;1043791;28;1834;-56
2022/10/15 01:51:36;;;;;;;;;;;;;;;;;;1046352;28;2488;-55
2022/10/15 01:52:18;;;;;;;;;;;;;;;;;;1054919;28;3017;-53
2022/10/15 01:52:50;;;;;;;;;;;;;;;;;;1053239;28;2601;-52
2022/10/15 01:53:25;;;;;;;;;;;;;;;;;;1054098;28;2447;-55
2022/10/15 01:53:55;;;;;;;;;;;;;;;;;;1050964;28;1679;-55
2022/10/15 01:54:26;;;;;;;;;;;;;;;;;;1052442;28;2236;-57
2022/10/15 01:54:58;;;;;;;;;;;;;;;;;;1053317;28;2445;-55
2022/10/15 01:55:36;;;;;;;;;;;;;;;;;;1049344;28;2716;-52
2022/10/15 01:56:08;;;;;;;;;;;;;;;;;;1049438;28;3060;-55
2022/10/15 01:56:39;;;;;;;;;;;;;;;;;;1050451;28;2799;-57
2022/10/15 01:57:10;;;;;;;;;;;;;;;;;;1050325;28;2672;-56
2022/10/15 01:57:41;;;;;;;;;;;;;;;;;;1052234;28;2079;-56
2022/10/15 01:58:13;;;;;;;;;;;;;;;;;;1052831;28;2440;-55
2022/10/15 01:58:52;;;;;;;;;;;;;;;;;;1051451;28;2536;-54
2022/10/15 01:59:24;;;;;;;;;;;;;;;;;;1055422;28;1663;-54
2022/10/15 01:59:55;;;;;;;;;;;;;;;;;;1052235;28;2483;-56
2022/10/15 02:00:25;;;;;;;;;;;;;;;;;;1050378;28;2457;-54
2022/10/15 02:00:57;;;;;;;;;;;;;;;;;;1048805;28;3055;-55
2022/10/15 02:01:27;;;;;;;;;;;;;;;;;;1050012;28;2326;-55
2022/10/15 02:01:57;;;;;;;;;;;;;;;;;;1047146;28;2088;-55
2022/10/15 02:02:28;;;;;;;;;;;;;;;;;;1053168;28;3027;-57
2022/10/15 02:03:00;;;;;;;;;;;;;;;;;;1050631;28;1739;-58
2022/10/15 02:03:31;;;;;;;;;;;;;;;;;;1050422;28;1993;-56
2022/10/15 02:04:16;;;;;;;;;;;;;;;;;;1045931;28;1782;-54
2022/10/15 02:04:47;;;;;;;;;;;;;;;;;;1041472;28;2506;-57
2022/10/15 02:05:22;;;;;;;;;;;;;;;;;;1035687;28;2929;-55
2022/10/15 02:05:56;;;;;;;;;;;;;;;;;;1038861;28;2596;-55
2022/10/15 02:06:27;;;;;;;;;;;;;;;;;;1043109;28;2027;-56
2022/10/15 02:07:04;;;;;;;;;;;;;;;;;;1040123;28;2378;-53
2022/10/15 02:07:53;;;;;;;;;;;;;;;;;;1044963;28;2223;-54
2022/10/15 02:08:30;;;;;;;;;;;;;;;;;;1045237;28;2445;-56
2022/10/15 02:09:06;;;;;;;;;;;;;;;;;;1049947;28;2534;-58
2022/10/15 02:09:42;;;;;;;;;;;;;;;;;;1044876;28;2688;-56
2022/10/15 02:10:15;;;;;;;;;;;;;;;;;;1043790;28;3038;-57
2022/10/15 02:10:50;;;;;;;;;;;;;;;;;;1046107;28;2370;-54
2022/10/15 02:11:21;;;;;;;;;;;;;;;;;;1042524;28;2489;-52
2022/10/15 02:12:17;;;;;;;;;;;;;;;;;;1045032;28;2537;-55
2022/10/15 02:12:50;;;;;;;;;;;;;;;;;;1042591;28;2828;-56
2022/10/15 02:13:24;;;;;;;;;;;;;;;;;;1052811;28;2547;-55
2022/10/15 02:14:00;;;;;;;;;;;;;;;;;;1047193;28;2586;-55
2022/10/15 02:14:50;;;;;;;;;;;;;;;;;;1047035;28;2071;-54
2022/10/15 02:15:29;;;;;;;;;;;;;;;;;;1045059;28;3064;-53
2022/10/15 02:16:00;;;;;;;;;;;;;;;;;;1051047;28;2511;-55
2022/10/15 02:16:36;;;;;;;;;;;;;;;;;;1052783;28;2616;-52
2022/10/15 02:17:10;;;;;;;;;;;;;;;;;;1051050;28;3047;-56
2022/10/15 02:17:44;;;;;;;;;;;;;;;;;;1051706;28;3099;-56
2022/10/15 02:18:19;;;;;;;;;;;;;;;;;;1052735;28;2981;-55
2022/10/15 02:19:08;;;;;;;;;;;;;;;;;;1052191;28;2458;-58
2022/10/15 02:19:57;;;;;;;;;;;;;;;;;;1045380;28;2825;-55
2022/10/15 02:20:30;;;;;;;;;;;;;;;;;;1045039;28;2565;-56
2022/10/15 02:21:21;;;;;;;;;;;;;;;;;;1044556;28;2576;-55
2022/10/15 02:21:53;;;;;;;;;;;;;;;;;;1051209;28;2545;-57
2022/10/15 02:22:27;;;;;;;;;;;;;;;;;;1051252;28;2768;-57
2022/10/15 02:22:57;;;;;;;;;;;;;;;;;;1052640;28;2534;-55
2022/10/15 02:23:34;;;;;;;;;;;;;;;;;;1051230;28;1694;-57
2022/10/15 02:24:08;;;;;;;;;;;;;;;;;;1047297;28;2772;-55
2022/10/15 02:24:41;;;;;;;;;;;;;;;;;;1047652;28;2707;-57
2022/10/15 02:25:17;;;;;;;;;;;;;;;;;;1045736;28;2731;-56
2022/10/15 02:25:49;;;;;;;;;;;;;;;;;;1050905;28;2165;-55
2022/10/15 02:26:20;;;;;;;;;;;;;;;;;;1046656;28;1790;-57
2022/10/15 02:26:52;;;;;;;;;;;;;;;;;;1049638;28;2602;-54
2022/10/15 02:27:23;;;;;;;;;;;;;;;;;;1052635;28;2527;-55
2022/10/15 02:27:55;;;;;;;;;;;;;;;;;;1052669;28;2371;-54
2022/10/15 02:28:26;;;;;;;;;;;;;;;;;;1054435;28;2462;-58
2022/10/15 02:28:59;;;;;;;;;;;;;;;;;;1055105;28;2172;-54
2022/10/15 02:29:31;;;;;;;;;;;;;;;;;;1050966;28;2450;-56
2022/10/15 02:30:03;;;;;;;;;;;;;;;;;;1053156;28;2644;-58
2022/10/15 02:30:35;;;;;;;;;;;;;;;;;;1052268;28;3098;-55
2022/10/15 02:31:07;;;;;;;;;;;;;;;;;;1050616;28;2996;-57
2022/10/15 02:31:40;;;;;;;;;;;;;;;;;;1048269;28;2804;-56
2022/10/15 02:32:12;;;;;;;;;;;;;;;;;;1048106;28;3017;-58
2022/10/15 02:32:44;;;;;;;;;;;;;;;;;;1049639;28;2009;-54
2022/10/15 02:33:15;;;;;;;;;;;;;;;;;;1047080;28;2631;-57
2022/10/15 02:33:47;;;;;;;;;;;;;;;;;;1048912;28;2647;-55
2022/10/15 02:34:19;;;;;;;;;;;;;;;;;;1048284;28;2775;-55
2022/10/15 02:34:51;;;;;;;;;;;;;;;;;;1040895;28;2536;-54
2022/10/15 02:35:22;;;;;;;;;;;;;;;;;;1042273;28;2272;-52
2022/10/15 02:35:53;;;;;;;;;;;;;;;;;;1043660;28;2541;-57
2022/10/15 02:36:24;;;;;;;;;;;;;;;;;;1045707;28;3069;-55
2022/10/15 02:36:56;;;;;;;;;;;;;;;;;;1053246;28;2558;-58
2022/10/15 02:37:27;;;;;;;;;;;;;;;;;;1052484;28;2606;-52
2022/10/15 02:38:01;;;;;;;;;;;;;;;;;;1042830;28;2674;-53
2022/10/15 02:38:31;;;;;;;;;;;;;;;;;;1043506;28;2563;-57
2022/10/15 02:39:03;;;;;;;;;;;;;;;;;;1045355;28;2567;-55
2022/10/15 02:39:33;;;;;;;;;;;;;;;;;;1044615;28;2424;-55
2022/10/15 02:40:04;;;;;;;;;;;;;;;;;;1051770;28;2511;-55
2022/10/15 02:40:34;;;;;;;;;;;;;;;;;;1050514;28;3023;-57
2022/10/15 02:41:06;;;;;;;;;;;;;;;;;;1052594;28;3039;-55
2022/10/15 02:41:37;;;;;;;;;;;;;;;;;;1053685;28;3608;-52
2022/10/15 02:42:08;;;;;;;;;;;;;;;;;;1052968;28;2370;-58
2022/10/15 02:42:39;;;;;;;;;;;;;;;;;;1050644;28;2465;-55
2022/10/15 02:43:11;;;;;;;;;;;;;;;;;;1051957;28;2382;-57
2022/10/15 02:43:42;;;;;;;;;;;;;;;;;;1052697;28;2894;-57
2022/10/15 02:44:12;;;;;;;;;;;;;;;;;;1054685;28;2410;-53
2022/10/15 02:44:42;;;;;;;;;;;;;;;;;;1051486;28;3155;-53
2022/10/15 02:45:13;;;;;;;;;;;;;;;;;;1048236;28;2489;-54
2022/10/15 02:45:43;;;;;;;;;;;;;;;;;;1049240;28;2622;-56
2022/10/15 02:46:15;;;;;;;;;;;;;;;;;;1048121;28;2251;-53
2022/10/15 02:46:45;;;;;;;;;;;;;;;;;;1043217;28;2690;-56
2022/10/15 02:47:16;;;;;;;;;;;;;;;;;;1048935;28;2276;-53
2022/10/15 02:47:46;;;;;;;;;;;;;;;;;;1049637;28;2675;-55
2022/10/15 02:48:30;;;;;;;;;;;;;;;;;;1048106;28;2646;-54
2022/10/15 02:49:07;;;;;;;;;;;;;;;;;;1047314;28;2724;-57
2022/10/15 02:49:38;;;;;;;;;;;;;;;;;;1048203;28;2577;-56
2022/10/15 02:50:08;;;;;;;;;;;;;;;;;;1050086;28;2546;-57
2022/10/15 02:50:39;;;;;;;;;;;;;;;;;;1049691;28;2529;-56
2022/10/15 02:51:09;;;;;;;;;;;;;;;;;;1049193;28;2516;-55
2022/10/15 02:51:40;;;;;;;;;;;;;;;;;;1049071;28;2804;-56
2022/10/15 02:52:10;;;;;;;;;;;;;;;;;;1047526;28;2550;-55
2022/10/15 02:52:41;;;;;;;;;;;;;;;;;;1046642;28;2597;-56
2022/10/15 02:53:11;;;;;;;;;;;;;;;;;;1047494;28;3014;-56
2022/10/15 02:53:41;;;;;;;;;;;;;;;;;;1048783;28;2591;-51
2022/10/15 02:54:11;;;;;;;;;;;;;;;;;;1047861;28;2529;-53
2022/10/15 02:54:42;;;;;;;;;;;;;;;;;;1047803;28;2452;-53
2022/10/15 02:55:12;;;;;;;;;;;;;;;;;;1049558;28;2338;-56
2022/10/15 02:55:49;;;;;;;;;;;;;;;;;;1047814;28;2302;-53
2022/10/15 02:56:20;;;;;;;;;;;;;;;;;;1051352;28;2733;-57
2022/10/15 02:56:50;;;;;;;;;;;;;;;;;;1049981;28;2538;-53
2022/10/15 02:57:21;;;;;;;;;;;;;;;;;;1049272;28;2780;-54
2022/10/15 02:57:52;;;;;;;;;;;;;;;;;;1048930;28;2612;-54
2022/10/15 02:58:22;;;;;;;;;;;;;;;;;;1048961;28;3112;-55
2022/10/15 02:58:53;;;;;;;;;;;;;;;;;;1046039;28;3031;-55
2022/10/15 02:59:23;;;;;;;;;;;;;;;;;;1045862;28;2123;-53
2022/10/15 02:59:53;;;;;;;;;;;;;;;;;;1045505;28;2500;-54
2022/10/15 03:00:24;;;;;;;;;;;;;;;;;;1046115;28;2523;-57
2022/10/15 03:00:54;;;;;;;;;;;;;;;;;;1048328;28;2222;-57
2022/10/15 03:01:25;;;;;;;;;;;;;;;;;;1048516;28;2510;-56
2022/10/15 03:01:55;;;;;;;;;;;;;;;;;;1040646;28;2544;-54
2022/10/15 03:02:26;;;;;;;;;;;;;;;;;;1042311;28;2627;-53
2022/10/15 03:02:56;;;;;;;;;;;;;;;;;;1043248;28;2087;-56
2022/10/15 03:03:26;;;;;;;;;;;;;;;;;;1046963;28;1590;-56
2022/10/15 03:03:57;;;;;;;;;;;;;;;;;;1054330;28;2477;-58
2022/10/15 03:04:28;;;;;;;;;;;;;;;;;;1044937;28;2624;-52
2022/10/15 03:04:59;;;;;;;;;;;;;;;;;;1045207;28;3030;-58
2022/10/15 03:05:29;;;;;;;;;;;;;;;;;;1043143;28;2933;-55
2022/10/15 03:05:59;;;;;;;;;;;;;;;;;;1038957;28;2332;-55
2022/10/15 03:06:30;;;;;;;;;;;;;;;;;;1046397;28;3070;-58
2022/10/15 03:07:00;;;;;;;;;;;;;;;;;;1045417;28;2757;-54
2022/10/15 03:07:30;;;;;;;;;;;;;;;;;;1048288;28;2501;-56
2022/10/15 03:08:00;;;;;;;;;;;;;;;;;;1048021;28;1586;-58
2022/10/15 03:08:31;;;;;;;;;;;;;;;;;;1048290;28;2422;-55
2022/10/15 03:09:02;;;;;;;;;;;;;;;;;;1050189;28;3137;-54
2022/10/15 03:09:32;;;;;;;;;;;;;;;;;;1047789;28;2101;-56
2022/10/15 03:10:03;;;;;;;;;;;;;;;;;;1049771;28;2623;-56
2022/10/15 03:10:33;;;;;;;;;;;;;;;;;;1048409;28;1944;-57
2022/10/15 03:11:03;;;;;;;;;;;;;;;;;;1049627;28;2602;-52
2022/10/15 03:11:34;;;;;;;;;;;;;;;;;;1050090;28;3173;-58
2022/10/15 03:12:05;;;;;;;;;;;;;;;;;;1047901;28;2824;-54
2022/10/15 03:12:36;;;;;;;;;;;;;;;;;;1042370;28;2127;-55
2022/10/15 03:13:06;;;;;;;;;;;;;;;;;;1045335;28;2639;-53
2022/10/15 03:13:37;;;;;;;;;;;;;;;;;;1043490;28;2925;-55
2022/10/15 03:14:07;;;;;;;;;;;;;;;;;;1046198;28;2847;-57
2022/10/15 03:14:38;;;;;;;;;;;;;;;;;;1048514;28;2565;-56
2022/10/15 03:15:08;;;;;;;;;;;;;;;;;;1050167;28;2586;-53
2022/10/15 03:15:38;;;;;;;;;;;;;;;;;;1050483;28;2473;-53
2022/10/15 03:16:10;;;;;;;;;;;;;;;;;;1048837;28;2261;-51
2022/10/15 03:16:40;;;;;;;;;;;;;;;;;;1050700;28;2530;-57
2022/10/15 03:17:11;;;;;;;;;;;;;;;;;;1050068;28;2527;-54
2022/10/15 03:17:41;;;;;;;;;;;;;;;;;;1049264;28;2545;-51
2022/10/15 03:18:11;;;;;;;;;;;;;;;;;;1050653;28;2512;-55
2022/10/15 03:18:41;;;;;;;;;;;;;;;;;;1048767;28;2577;-51
2022/10/15 03:19:12;;;;;;;;;;;;;;;;;;1049115;28;2023;-55
2022/10/15 03:19:42;;;;;;;;;;;;;;;;;;1047718;28;2639;-55
2022/10/15 03:20:13;;;;;;;;;;;;;;;;;;1044699;28;2097;-54
2022/10/15 03:20:44;;;;;;;;;;;;;;;;;;1043777;28;2507;-52
2022/10/15 03:21:14;;;;;;;;;;;;;;;;;;1044855;28;2511;-56
2022/10/15 03:21:44;;;;;;;;;;;;;;;;;;1044580;28;2637;-57
2022/10/15 03:22:15;;;;;;;;;;;;;;;;;;1047813;28;2511;-59
2022/10/15 03:22:46;;;;;;;;;;;;;;;;;;1048251;28;2565;-57
2022/10/15 03:23:16;;;;;;;;;;;;;;;;;;1043785;28;2523;-57
2022/10/15 03:23:46;;;;;;;;;;;;;;;;;;1045815;28;2513;-57
2022/10/15 03:24:16;;;;;;;;;;;;;;;;;;1050328;28;2443;-55
2022/10/15 03:24:47;;;;;;;;;;;;;;;;;;1047678;28;2687;-57
2022/10/15 03:25:17;;;;;;;;;;;;;;;;;;1049688;28;2636;-57
2022/10/15 03:25:47;;;;;;;;;;;;;;;;;;1050214;28;2551;-53
2022/10/15 03:26:18;;;;;;;;;;;;;;;;;;1049390;28;2545;-54
2022/10/15 03:26:48;;;;;;;;;;;;;;;;;;1051345;28;2467;-52
2022/10/15 03:27:18;;;;;;;;;;;;;;;;;;1051769;28;1914;-52
2022/10/15 03:27:51;;;;;;;;;;;;;;;;;;1047411;28;2622;-55
2022/10/15 03:28:21;;;;;;;;;;;;;;;;;;1049927;28;2508;-57
2022/10/15 03:28:52;;;;;;;;;;;;;;;;;;1048509;28;2753;-58
2022/10/15 03:29:22;;;;;;;;;;;;;;;;;;1047473;28;3140;-57
2022/10/15 03:29:53;;;;;;;;;;;;;;;;;;1047746;28;3016;-55
2022/10/15 03:30:23;;;;;;;;;;;;;;;;;;1048191;28;2913;-53
2022/10/15 03:30:53;;;;;;;;;;;;;;;;;;1050800;28;1865;-56
2022/10/15 03:31:24;;;;;;;;;;;;;;;;;;1049976;28;1827;-56
2022/10/15 03:31:55;;;;;;;;;;;;;;;;;;1048542;28;2027;-56
2022/10/15 03:32:26;;;;;;;;;;;;;;;;;;1043774;28;2025;-56
2022/10/15 03:32:58;;;;;;;;;;;;;;;;;;1044061;28;2570;-55
2022/10/15 03:33:29;;;;;;;;;;;;;;;;;;1045715;28;2313;-51
2022/10/15 03:34:00;;;;;;;;;;;;;;;;;;1035798;28;2242;-52
2022/10/15 03:34:31;;;;;;;;;;;;;;;;;;1040815;28;2273;-55
2022/10/15 03:35:03;;;;;;;;;;;;;;;;;;1036649;28;2316;-55
2022/10/15 03:35:34;;;;;;;;;;;;;;;;;;1035162;28;1657;-55
2022/10/15 03:36:06;;;;;;;;;;;;;;;;;;1030492;28;2003;-54
2022/10/15 03:36:37;;;;;;;;;;;;;;;;;;1037318;28;2612;-54
2022/10/15 03:37:09;;;;;;;;;;;;;;;;;;1037102;28;2157;-53
2022/10/15 03:37:39;;;;;;;;;;;;;;;;;;1038082;28;2606;-55
2022/10/15 03:38:11;;;;;;;;;;;;;;;;;;1033532;28;2586;-56
2022/10/15 03:38:42;;;;;;;;;;;;;;;;;;1033879;28;2537;-53
2022/10/15 03:39:14;;;;;;;;;;;;;;;;;;1032211;28;1772;-54
2022/10/15 03:39:45;;;;;;;;;;;;;;;;;;1037142;28;2796;-55
2022/10/15 03:40:17;;;;;;;;;;;;;;;;;;1033989;28;2301;-54
2022/10/15 03:40:47;;;;;;;;;;;;;;;;;;1035439;28;2089;-59
2022/10/15 03:41:18;;;;;;;;;;;;;;;;;;1042698;28;1686;-55
2022/10/15 03:41:50;;;;;;;;;;;;;;;;;;1043553;28;2073;-57
2022/10/15 03:42:21;;;;;;;;;;;;;;;;;;1046393;28;2654;-56
2022/10/15 03:42:51;;;;;;;;;;;;;;;;;;1050074;28;2715;-53
2022/10/15 03:43:23;;;;;;;;;;;;;;;;;;1048669;28;2847;-57
2022/10/15 03:44:01;;;;;;;;;;;;;;;;;;1046495;28;2880;-51
2022/10/15 03:44:33;;;;;;;;;;;;;;;;;;1039411;28;3117;-57
2022/10/15 03:45:04;;;;;;;;;;;;;;;;;;1038625;28;3272;-55
2022/10/15 03:45:34;;;;;;;;;;;;;;;;;;1040181;28;3415;-55
2022/10/15 03:46:04;;;;;;;;;;;;;;;;;;1043768;28;2914;-55
2022/10/15 03:46:35;;;;;;;;;;;;;;;;;;1048467;28;2681;-57
2022/10/15 03:47:05;;;;;;;;;;;;;;;;;;1048916;28;2208;-57
2022/10/15 03:47:37;;;;;;;;;;;;;;;;;;1040293;28;1711;-57
2022/10/15 03:48:22;;;;;;;;;;;;;;;;;;1037132;28;2294;-54
2022/10/15 03:48:59;;;;;;;;;;;;;;;;;;1040301;28;3245;-57
2022/10/15 03:49:30;;;;;;;;;;;;;;;;;;1043767;28;2581;-55
2022/10/15 03:50:01;;;;;;;;;;;;;;;;;;1045401;28;2179;-53
2022/10/15 03:50:31;;;;;;;;;;;;;;;;;;1044374;28;2215;-56
2022/10/15 03:51:01;;;;;;;;;;;;;;;;;;1042919;28;1804;-56